Time;durP1;ratioP1;P1;durP2;ratioP2;P2;SDS_P1;SDS_P2;PMS_P1;PMS_P2;Temp;Humidity;BMP_temperature;BMP_pressure;BME280_temperature;BME280_humidity;BME280_pressure;Samples;Min_cycle;Max_cycle;Signal;HPM_P1;HPM_P2
2024/02/27 00:00:24;;;;;;;15.75;10.13;;;;;;;4.78;100.00;100728.91;6245221;22;20088;-84
2024/02/27 00:02:51;;;;;;;15.07;9.10;;;;;;;4.81;100.00;100728.97;6245680;22;20031;-84
2024/02/27 00:05:32;;;;;;;12.50;8.85;;;;;;;4.83;100.00;100739.38;6244069;22;20019;-84
2024/02/27 00:10:52;;;;;;;15.25;8.82;;;;;;;4.78;100.00;100736.69;6236415;22;20096;-86
2024/02/27 00:13:41;;;;;;;12.68;8.73;;;;;;;4.71;100.00;100742.63;6278503;22;20357;-86
2024/02/27 00:16:30;;;;;;;16.48;10.25;;;;;;;4.76;100.00;100748.78;6279080;22;20072;-86
2024/02/27 00:19:05;;;;;;;12.35;8.38;;;;;;;4.75;100.00;100752.19;6275451;22;20023;-85
2024/02/27 00:21:39;;;;;;;13.93;8.75;;;;;;;4.77;100.00;100751.38;6271594;22;20034;-85
2024/02/27 00:24:10;;;;;;;12.55;9.27;;;;;;;4.73;100.00;100759.06;6269763;22;20039;-83
2024/02/27 00:26:40;;;;;;;13.25;9.85;;;;;;;4.72;100.00;100767.69;6243683;22;20703;-84
2024/02/27 00:29:09;;;;;;;16.42;9.05;;;;;;;4.69;100.00;100772.84;6262283;22;20088;-84
2024/02/27 00:31:41;;;;;;;14.73;8.98;;;;;;;4.74;100.00;100771.19;6293219;22;20042;-85
2024/02/27 00:36:52;;;;;;;15.02;9.10;;;;;;;4.73;100.00;100772.94;6239142;22;20027;-86
2024/02/27 00:39:25;;;;;;;12.00;8.05;;;;;;;4.68;100.00;100776.28;6270140;22;20015;-85
2024/02/27 00:41:56;;;;;;;11.02;8.05;;;;;;;4.70;100.00;100772.84;6244230;22;20023;-84
2024/02/27 00:44:26;;;;;;;13.93;9.10;;;;;;;4.69;100.00;100776.28;6234291;22;20026;-84
2024/02/27 00:47:05;;;;;;;13.90;8.40;;;;;;;4.60;100.00;100770.94;6240465;22;20409;-85
2024/02/27 00:49:32;;;;;;;12.95;8.50;;;;;;;4.61;100.00;100764.94;6265435;22;20073;-85
2024/02/27 00:51:59;;;;;;;13.68;8.85;;;;;;;4.65;100.00;100769.31;6238563;22;20479;-85
2024/02/27 00:54:26;;;;;;;13.65;7.90;;;;;;;4.67;100.00;100762.44;6265697;22;20445;-86
2024/02/27 00:57:06;;;;;;;16.48;9.77;;;;;;;4.49;100.00;100777.69;6266548;22;20019;-86
2024/02/27 00:59:32;;;;;;;11.93;7.90;;;;;;;4.59;100.00;100775.28;6240767;22;20076;-85
2024/02/27 01:02:01;;;;;;;14.27;8.32;;;;;;;4.52;100.00;100786.38;6263903;22;20023;-83
2024/02/27 01:04:32;;;;;;;14.13;9.35;;;;;;;4.52;100.00;100780.31;6239179;22;20048;-84
2024/02/27 01:07:00;;;;;;;13.13;8.50;;;;;;;4.50;100.00;100784.59;6276721;22;20022;-84
2024/02/27 01:09:33;;;;;;;13.73;8.00;;;;;;;4.47;100.00;100785.41;6249736;22;20035;-83
2024/02/27 01:14:44;;;;;;;13.77;8.52;;;;;;;4.27;100.00;100785.91;6253847;22;20022;-83
2024/02/27 01:17:14;;;;;;;11.55;8.45;;;;;;;4.19;100.00;100790.09;6291045;22;20041;-83
2024/02/27 01:19:50;;;;;;;13.27;8.43;;;;;;;4.14;100.00;100802.09;6292090;22;20086;-82
2024/02/27 01:22:34;;;;;;;15.57;8.55;;;;;;;4.03;100.00;100803.56;6276288;22;20019;-84
2024/02/27 01:25:02;;;;;;;14.43;7.57;;;;;;;3.93;100.00;100803.38;6267461;22;20019;-86
2024/02/27 01:27:30;;;;;;;14.25;9.40;;;;;;;3.83;100.00;100798.84;6291547;22;20076;-84
2024/02/27 01:29:57;;;;;;;15.45;9.50;;;;;;;3.81;100.00;100790.19;6287203;22;20019;-84
2024/02/27 01:32:23;;;;;;;11.55;8.23;;;;;;;3.73;100.00;100794.31;6254622;22;20019;-84
2024/02/27 01:34:50;;;;;;;17.17;10.00;;;;;;;3.64;100.00;100785.53;6281036;22;20073;-86
2024/02/27 01:37:20;;;;;;;15.07;9.25;;;;;;;3.63;100.00;100783.78;6254477;22;20023;-83
2024/02/27 01:39:47;;;;;;;13.77;9.55;;;;;;;3.55;100.00;100790.50;6280793;22;20058;-83
2024/02/27 01:42:13;;;;;;;16.67;9.90;;;;;;;3.51;100.00;100775.75;6253503;22;20026;-83
2024/02/27 01:44:51;;;;;;;17.17;9.68;;;;;;;3.49;100.00;100777.44;6281604;22;20274;-84
2024/02/27 01:47:19;;;;;;;16.67;9.65;;;;;;;3.46;100.00;100786.00;6254281;22;20023;-85
2024/02/27 01:49:49;;;;;;;17.05;10.68;;;;;;;3.39;100.00;100780.66;6256735;22;20030;-84
2024/02/27 01:52:16;;;;;;;17.75;11.38;;;;;;;3.22;100.00;100780.25;6257061;22;20416;-83
2024/02/27 01:54:46;;;;;;;19.60;11.80;;;;;;;3.25;100.00;100788.13;6281585;22;20018;-83
2024/02/27 01:57:15;;;;;;;18.08;10.75;;;;;;;3.21;100.00;100792.34;6255659;22;20307;-84
2024/02/27 01:59:44;;;;;;;16.33;10.70;;;;;;;3.20;100.00;100792.31;6280570;22;20341;-84
2024/02/27 02:02:11;;;;;;;19.00;11.90;;;;;;;3.24;100.00;100802.75;6250014;22;20129;-83
2024/02/27 02:04:37;;;;;;;15.88;10.45;;;;;;;3.19;100.00;100806.06;6253434;22;20019;-84
2024/02/27 02:07:07;;;;;;;18.63;11.27;;;;;;;3.12;100.00;100805.06;6252611;22;20026;-84
2024/02/27 02:09:33;;;;;;;25.60;12.13;;;;;;;3.11;100.00;100796.41;6254976;22;20121;-84
2024/02/27 02:12:00;;;;;;;22.00;10.32;;;;;;;3.04;100.00;100804.88;6252598;22;20026;-84
2024/02/27 02:14:30;;;;;;;18.60;10.60;;;;;;;3.10;100.00;100814.47;6254327;22;20019;-85
2024/02/27 02:16:57;;;;;;;23.60;13.50;;;;;;;3.09;100.00;100815.31;6252428;22;20360;-83
2024/02/27 02:19:31;;;;;;;20.88;11.88;;;;;;;3.12;100.00;100820.56;6255844;22;20019;-83
2024/02/27 02:22:00;;;;;;;21.92;11.88;;;;;;;3.08;100.00;100824.78;6254925;22;20106;-84
2024/02/27 02:24:31;;;;;;;24.65;12.57;;;;;;;3.10;100.00;100830.91;6281318;22;20237;-84
2024/02/27 02:26:58;;;;;;;24.75;14.18;;;;;;;3.10;100.00;100830.00;6278284;22;20031;-84
2024/02/27 02:29:25;;;;;;;23.20;13.25;;;;;;;3.19;100.00;100835.41;6254414;22;20460;-85
2024/02/27 02:31:56;;;;;;;21.80;12.10;;;;;;;3.07;100.00;100838.56;6253574;22;20015;-85
2024/02/27 02:34:26;;;;;;;23.92;12.88;;;;;;;3.13;100.00;100833.53;6278367;22;20094;-85
2024/02/27 02:36:53;;;;;;;21.67;13.50;;;;;;;3.08;100.00;100848.06;6280468;22;20429;-84
2024/02/27 02:39:19;;;;;;;24.88;13.13;;;;;;;3.07;100.00;100846.31;6254644;22;20019;-82
2024/02/27 02:41:50;;;;;;;26.50;13.15;;;;;;;3.12;100.00;100849.91;6260594;22;20106;-84
2024/02/27 02:44:20;;;;;;;21.70;12.82;;;;;;;3.07;100.00;100854.06;6256297;22;20019;-86
2024/02/27 02:46:47;;;;;;;24.50;13.85;;;;;;;3.12;100.00;100861.97;6278672;22;20019;-84
2024/02/27 02:49:14;;;;;;;22.88;13.45;;;;;;;3.18;100.00;100863.81;6252314;22;20072;-84
2024/02/27 02:51:45;;;;;;;27.58;16.58;;;;;;;3.15;100.00;100872.38;6251962;22;20475;-84
2024/02/27 02:54:14;;;;;;;22.00;13.10;;;;;;;3.10;100.00;100880.03;6250610;22;20072;-84
2024/02/27 02:56:41;;;;;;;24.00;13.25;;;;;;;3.14;100.00;100878.38;6252107;22;20026;-85
2024/02/27 02:59:08;;;;;;;25.67;14.43;;;;;;;3.26;100.00;100882.97;6278633;22;20015;-84
2024/02/27 03:01:38;;;;;;;28.13;13.93;;;;;;;3.23;100.00;100881.19;6273011;22;20019;-84
2024/02/27 03:04:04;;;;;;;27.13;14.55;;;;;;;3.07;100.00;100886.84;6248047;22;20450;-86
2024/02/27 03:06:31;;;;;;;31.30;15.07;;;;;;;3.05;100.00;100880.75;6277784;22;20024;-84
2024/02/27 03:08:57;;;;;;;28.45;14.70;;;;;;;2.92;100.00;100887.31;6252285;22;20065;-85
2024/02/27 03:11:25;;;;;;;27.88;14.63;;;;;;;3.06;100.00;100895.44;6279502;22;20433;-85
2024/02/27 03:13:52;;;;;;;23.23;12.90;;;;;;;2.91;100.00;100891.63;6255609;22;20429;-84
2024/02/27 03:16:19;;;;;;;26.42;13.82;;;;;;;2.88;100.00;100888.06;6277768;22;20019;-84
2024/02/27 03:18:45;;;;;;;22.23;12.63;;;;;;;2.81;100.00;100893.06;6253223;22;20019;-83
2024/02/27 03:21:12;;;;;;;27.58;15.23;;;;;;;2.91;100.00;100889.03;6254197;22;20102;-85
2024/02/27 03:23:41;;;;;;;27.80;14.50;;;;;;;3.06;100.00;100892.84;6278133;22;20020;-86
2024/02/27 03:26:07;;;;;;;24.52;12.93;;;;;;;3.00;100.00;100890.97;6278543;22;20011;-84
2024/02/27 03:28:34;;;;;;;25.60;14.15;;;;;;;3.13;100.00;100898.22;6253607;22;20027;-85
2024/02/27 03:31:01;;;;;;;23.15;13.20;;;;;;;3.18;100.00;100900.03;6253262;22;20448;-85
2024/02/27 03:33:28;;;;;;;20.30;11.55;;;;;;;3.13;100.00;100905.97;6253976;22;20054;-83
2024/02/27 03:35:54;;;;;;;23.00;13.23;;;;;;;3.17;100.00;100904.34;6255627;22;20015;-86
2024/02/27 03:38:23;;;;;;;24.50;13.38;;;;;;;3.20;100.00;100900.97;6251834;22;20015;-84
2024/02/27 03:40:50;;;;;;;19.58;12.30;;;;;;;3.31;100.00;100897.81;6271527;22;19995;-84
2024/02/27 03:43:25;;;;;;;21.45;12.43;;;;;;;3.42;100.00;100894.59;6270704;22;20005;-85
2024/02/27 03:45:59;;;;;;;22.50;13.05;;;;;;;3.19;100.00;100897.47;6246856;22;20003;-86
2024/02/27 03:48:29;;;;;;;25.63;14.35;;;;;;;3.23;100.00;100895.84;6282624;22;20027;-84
2024/02/27 03:50:55;;;;;;;22.27;13.32;;;;;;;2.99;100.00;100904.75;6253493;22;20661;-84
2024/02/27 03:53:22;;;;;;;20.42;12.75;;;;;;;3.00;100.00;100905.59;6255961;22;20031;-84
2024/02/27 03:55:49;;;;;;;24.98;13.30;;;;;;;3.00;100.00;100903.03;6254039;22;20011;-83
2024/02/27 03:58:16;;;;;;;25.35;15.35;;;;;;;3.06;100.00;100903.19;6256105;22;20023;-83
2024/02/27 04:00:42;;;;;;;24.15;13.15;;;;;;;3.10;100.00;100899.84;6255820;22;20020;-85
2024/02/27 04:03:12;;;;;;;22.70;12.70;;;;;;;3.18;100.00;100900.03;6267007;22;20027;-84
2024/02/27 04:05:39;;;;;;;19.05;12.23;;;;;;;3.19;100.00;100907.81;6257776;22;20050;-84
2024/02/27 04:08:08;;;;;;;21.98;12.80;;;;;;;3.24;100.00;100915.72;6254518;22;20337;-83
2024/02/27 04:10:39;;;;;;;26.65;14.82;;;;;;;3.22;100.00;100913.09;6281496;22;20121;-84
2024/02/27 04:13:07;;;;;;;19.88;12.45;;;;;;;3.19;100.00;100910.41;6282183;22;20556;-84
2024/02/27 04:15:37;;;;;;;23.23;12.90;;;;;;;3.21;100.00;100908.75;6254556;22;20019;-86
2024/02/27 04:18:05;;;;;;;23.10;13.07;;;;;;;3.35;100.00;100906.53;6280919;22;20019;-84
2024/02/27 04:20:32;;;;;;;21.27;12.13;;;;;;;3.43;100.00;100912.75;6256179;22;20023;-84
2024/02/27 04:23:00;;;;;;;19.80;11.60;;;;;;;3.45;100.00;100902.44;6254358;22;20400;-85
2024/02/27 04:25:29;;;;;;;23.15;12.85;;;;;;;3.31;100.00;100923.69;6255082;22;20019;-83
2024/02/27 04:28:10;;;;;;;25.75;13.15;;;;;;;3.33;100.00;100918.53;6285031;22;20019;-84
2024/02/27 04:30:37;;;;;;;20.13;12.43;;;;;;;3.46;100.00;100923.16;6280063;22;20583;-84
2024/02/27 04:33:12;;;;;;;22.92;12.02;;;;;;;3.55;100.00;100927.69;6261378;22;20003;-85
2024/02/27 04:35:39;;;;;;;20.48;12.50;;;;;;;3.58;100.00;100925.16;6256499;22;20011;-83
2024/02/27 04:38:15;;;;;;;23.67;12.32;;;;;;;3.65;100.00;100931.41;6261305;22;20057;-83
2024/02/27 04:40:44;;;;;;;20.42;12.77;;;;;;;3.61;100.00;100935.63;6257761;22;20015;-85
2024/02/27 04:43:14;;;;;;;20.15;11.23;;;;;;;3.64;100.00;100934.81;6256734;22;20023;-85
2024/02/27 04:45:42;;;;;;;23.45;12.45;;;;;;;3.61;100.00;100933.03;6256766;22;20021;-84
2024/02/27 04:48:10;;;;;;;22.23;12.40;;;;;;;3.64;100.00;100933.09;6282841;22;20077;-84
2024/02/27 04:50:37;;;;;;;27.63;13.02;;;;;;;3.59;100.00;100933.84;6282785;22;20023;-84
2024/02/27 04:53:06;;;;;;;24.02;12.68;;;;;;;3.59;100.00;100926.94;6255270;22;20504;-83
2024/02/27 04:55:33;;;;;;;18.92;11.23;;;;;;;3.45;100.00;100939.53;6254711;22;20037;-84
2024/02/27 04:58:04;;;;;;;26.75;13.77;;;;;;;3.39;100.00;100941.09;6257028;22;20027;-85
2024/02/27 05:00:31;;;;;;;22.92;11.85;;;;;;;3.48;100.00;100941.31;6256833;22;20031;-82
2024/02/27 05:03:00;;;;;;;25.90;13.15;;;;;;;3.52;100.00;100945.75;6280236;22;20023;-82
2024/02/27 05:05:31;;;;;;;18.40;11.75;;;;;;;3.64;100.00;100952.94;6281520;22;20049;-82
2024/02/27 05:07:57;;;;;;;23.23;13.00;;;;;;;3.64;100.00;100946.03;6255106;22;20015;-83
2024/02/27 05:10:25;;;;;;;25.17;12.38;;;;;;;3.54;100.00;100944.06;6257090;22;20023;-84
2024/02/27 05:13:00;;;;;;;24.35;12.50;;;;;;;3.57;100.00;100943.25;6282415;22;19999;-83
2024/02/27 05:15:27;;;;;;;23.80;11.90;;;;;;;3.54;100.00;100954.41;6260669;22;20019;-84
2024/02/27 05:17:53;;;;;;;24.23;13.02;;;;;;;3.57;100.00;100953.63;6281610;22;20019;-83
2024/02/27 05:20:25;;;;;;;19.52;11.50;;;;;;;3.63;100.00;100962.41;6282534;22;20071;-84
2024/02/27 05:22:51;;;;;;;22.88;11.75;;;;;;;3.64;100.00;100963.31;6258028;22;20019;-85
2024/02/27 05:25:18;;;;;;;21.33;11.50;;;;;;;3.61;100.00;100964.09;6280223;22;20011;-84
2024/02/27 05:27:48;;;;;;;21.80;12.48;;;;;;;3.67;100.00;100958.19;6257317;22;20019;-84
2024/02/27 05:30:17;;;;;;;21.85;11.73;;;;;;;3.72;100.00;100969.53;6258384;22;20023;-84
2024/02/27 05:32:48;;;;;;;22.65;12.18;;;;;;;3.62;100.00;100968.44;6260519;22;20613;-84
2024/02/27 05:35:17;;;;;;;20.33;12.23;;;;;;;3.71;100.00;100980.72;6256988;22;20026;-86
2024/02/27 05:37:44;;;;;;;20.30;12.68;;;;;;;3.77;100.00;100975.69;6230742;22;20030;-86
2024/02/27 05:40:13;;;;;;;21.42;11.50;;;;;;;3.72;100.00;100977.28;6284992;22;20041;-85
2024/02/27 05:42:40;;;;;;;20.75;11.32;;;;;;;3.78;100.00;100985.22;6285849;22;20072;-86
2024/02/27 05:45:12;;;;;;;22.33;12.38;;;;;;;3.72;100.00;100976.44;6285688;22;20719;-84
2024/02/27 05:47:39;;;;;;;27.35;13.43;;;;;;;3.80;100.00;100973.16;6259349;22;20023;-86
2024/02/27 05:50:06;;;;;;;20.35;11.35;;;;;;;3.76;100.00;100975.66;6257678;22;20027;-84
2024/02/27 05:52:33;;;;;;;22.35;11.93;;;;;;;3.84;100.00;100973.25;6256884;22;20071;-84
2024/02/27 05:55:06;;;;;;;26.40;13.15;;;;;;;3.75;100.00;100979.09;6284162;22;20053;-86
2024/02/27 05:57:35;;;;;;;21.42;11.93;;;;;;;3.78;100.00;100974.88;6259101;22;20018;-84
2024/02/27 06:00:07;;;;;;;21.02;11.52;;;;;;;3.88;100.00;100975.94;6259537;22;20027;-84
2024/02/27 06:02:41;;;;;;;20.15;11.65;;;;;;;3.93;100.00;100984.69;6251984;22;20031;-84
2024/02/27 06:05:09;;;;;;;21.65;12.20;;;;;;;3.96;100.00;100984.78;6251985;22;20030;-84
2024/02/27 06:07:38;;;;;;;21.50;11.82;;;;;;;4.03;100.00;100992.69;6259534;22;20026;-85
2024/02/27 06:10:09;;;;;;;19.33;11.77;;;;;;;4.07;100.00;100997.97;6256740;22;20046;-85
2024/02/27 06:12:38;;;;;;;15.55;10.52;;;;;;;3.85;100.00;100993.16;6282550;22;20019;-85
2024/02/27 06:15:08;;;;;;;18.02;11.25;;;;;;;3.78;100.00;101005.03;6283510;22;20047;-84
2024/02/27 06:17:40;;;;;;;24.58;12.02;;;;;;;3.85;100.00;101006.97;6284344;22;20029;-85
2024/02/27 06:22:10;;;;;;;22.83;11.70;;;;;;;3.93;100.00;101012.31;6310941;22;20045;-85
2024/02/27 06:22:54;;;;;;;22.23;11.18;;;;;;;3.85;100.00;101019.03;6286617;22;20029;-85
2024/02/27 06:25:25;;;;;;;23.95;12.57;;;;;;;3.93;100.00;101033.03;6261040;22;20023;-85
2024/02/27 06:27:54;;;;;;;22.17;11.27;;;;;;;3.92;100.00;101020.94;6286892;22;20023;-85
2024/02/27 06:30:21;;;;;;;23.00;11.77;;;;;;;3.98;100.00;101021.09;6258930;22;20077;-86
2024/02/27 06:32:52;;;;;;;23.77;11.25;;;;;;;3.91;100.00;101026.94;6259331;22;20019;-85
2024/02/27 06:35:24;;;;;;;22.42;11.20;;;;;;;4.01;100.00;101025.47;6283404;22;20015;-86
2024/02/27 06:37:51;;;;;;;24.10;12.32;;;;;;;3.78;100.00;101025.75;6285044;22;20512;-85
2024/02/27 06:40:20;;;;;;;22.23;12.32;;;;;;;3.83;100.00;101031.94;6257929;22;20015;-86
2024/02/27 06:42:47;;;;;;;19.63;11.57;;;;;;;3.80;100.00;101037.91;6258158;22;20334;-86
2024/02/27 06:45:17;;;;;;;17.85;10.52;;;;;;;3.89;100.00;101039.00;6284713;22;20526;-86
2024/02/27 06:47:44;;;;;;;22.13;12.32;;;;;;;4.00;100.00;101047.03;6288524;22;20453;-87
2024/02/27 06:50:12;;;;;;;21.05;12.02;;;;;;;4.14;100.00;101045.63;6261369;22;20023;-87
2024/02/27 06:52:40;;;;;;;20.08;10.90;;;;;;;4.21;100.00;101051.84;6261714;22;20019;-86
2024/02/27 06:55:08;;;;;;;19.30;10.55;;;;;;;4.18;100.00;101060.41;6286093;22;20027;-86
2024/02/27 06:57:36;;;;;;;18.48;11.45;;;;;;;4.25;100.00;101057.13;6260500;22;20069;-87
2024/02/27 07:00:05;;;;;;;20.77;11.68;;;;;;;4.13;100.00;101056.81;6260892;22;20027;-86
2024/02/27 07:02:33;;;;;;;18.75;11.02;;;;;;;4.13;100.00;101056.81;6260175;22;20039;-87
2024/02/27 07:05:00;;;;;;;22.55;10.93;;;;;;;4.12;100.00;101062.88;6285800;22;20091;-87
2024/02/27 07:10:13;;;;;;;23.38;9.88;;;;;;;3.97;100.00;101055.59;6291368;22;20026;-85
2024/02/27 07:12:43;;;;;;;24.95;12.82;;;;;;;4.14;100.00;101061.19;6285452;22;20015;-85
2024/02/27 07:15:14;;;;;;;23.27;12.15;;;;;;;4.26;100.00;101060.59;6287693;22;20042;-87
2024/02/27 07:17:42;;;;;;;18.52;10.20;;;;;;;4.32;100.00;101054.69;6264231;22;20041;-85
2024/02/27 07:20:09;;;;;;;22.25;10.05;;;;;;;4.39;100.00;101064.34;6288369;22;20023;-86
2024/02/27 07:22:41;;;;;;;19.48;11.25;;;;;;;4.20;100.00;101060.44;6285764;22;20029;-86
2024/02/27 07:25:09;;;;;;;17.42;10.55;;;;;;;4.08;100.00;101063.63;6286143;22;20046;-84
2024/02/27 07:27:36;;;;;;;28.92;11.65;;;;;;;4.27;100.00;101059.75;6287537;22;20054;-85
2024/02/27 07:30:09;;;;;;;25.40;11.73;;;;;;;4.42;100.00;101057.53;6284926;22;20353;-85
2024/02/27 07:32:37;;;;;;;20.02;11.13;;;;;;;4.50;100.00;101068.06;6285840;22;20077;-84
2024/02/27 07:35:08;;;;;;;23.17;11.35;;;;;;;4.55;100.00;101071.63;6285288;22;20106;-87
2024/02/27 07:37:35;;;;;;;21.65;11.70;;;;;;;4.46;100.00;101069.72;6259876;22;20049;-85
2024/02/27 07:40:03;;;;;;;22.02;12.05;;;;;;;4.37;100.00;101074.69;6284779;22;20471;-85
2024/02/27 07:42:32;;;;;;;23.55;11.80;;;;;;;4.33;100.00;101085.81;6281306;22;20046;-86
2024/02/27 07:44:59;;;;;;;20.17;12.07;;;;;;;4.44;100.00;101081.75;6283001;22;20055;-85
2024/02/27 07:47:26;;;;;;;20.55;11.23;;;;;;;4.51;100.00;101085.38;6282153;22;20077;-86
2024/02/27 07:49:55;;;;;;;22.23;11.75;;;;;;;4.66;100.00;101092.63;6257349;22;20047;-86
2024/02/27 07:52:22;;;;;;;21.02;11.98;;;;;;;4.78;100.00;101085.13;6257401;22;20029;-85
2024/02/27 07:54:52;;;;;;;20.17;11.82;;;;;;;4.83;100.00;101085.19;6260189;22;20023;-84
2024/02/27 08:00:18;;;;;;;18.33;9.27;;;;;;;4.93;100.00;101091.47;6306032;22;20026;-85
2024/02/27 08:03:05;;;;;;;21.77;11.95;;;;;;;4.87;100.00;101101.72;6275370;22;20019;-85
2024/02/27 08:05:45;;;;;;;17.02;9.82;;;;;;;4.92;100.00;101092.31;6275496;22;20016;-84
2024/02/27 08:08:13;;;;;;;22.02;10.98;;;;;;;4.97;100.00;101088.09;6261957;22;20055;-86
2024/02/27 08:10:40;;;;;;;20.10;11.07;;;;;;;5.09;100.00;101082.28;6257451;22;20030;-84
2024/02/27 08:13:09;;;;;;;23.38;11.30;;;;;;;5.07;100.00;101083.97;6256440;22;20023;-84
2024/02/27 08:15:36;;;;;;;19.42;11.10;;;;;;;4.99;100.00;101086.41;6256732;22;20023;-86
2024/02/27 08:18:06;;;;;;;18.83;10.27;;;;;;;4.92;100.00;101087.13;6283929;22;20070;-85
2024/02/27 08:20:33;;;;;;;23.63;11.63;;;;;;;4.89;100.00;101093.13;6279731;22;20011;-85
2024/02/27 08:22:59;;;;;;;19.23;11.23;;;;;;;5.09;100.00;101095.25;6256569;22;20609;-84
2024/02/27 08:25:27;;;;;;;20.40;11.68;;;;;;;5.19;100.00;101089.41;6253586;22;20015;-86
2024/02/27 08:28:01;;;;;;;21.35;12.45;;;;;;;5.25;100.00;101094.75;6281071;22;20011;-86
2024/02/27 08:30:28;;;;;;;19.35;11.30;;;;;;;4.99;100.00;101093.31;6281143;22;20033;-86
2024/02/27 08:32:57;;;;;;;22.58;11.57;;;;;;;4.96;100.00;101100.19;6280872;22;20035;-85
2024/02/27 08:35:26;;;;;;;22.15;11.25;;;;;;;4.78;100.00;101105.88;6255392;22;20015;-87
2024/02/27 08:37:53;;;;;;;24.65;13.18;;;;;;;4.76;100.00;101102.34;6255568;22;20023;-85
2024/02/27 08:40:20;;;;;;;20.75;11.98;;;;;;;4.73;100.00;101102.28;6256533;22;20088;-86
2024/02/27 08:42:53;;;;;;;21.48;11.05;;;;;;;4.57;100.00;101102.78;6258701;22;20019;-86
2024/02/27 08:45:20;;;;;;;20.20;9.73;;;;;;;4.62;100.00;101093.38;6283432;22;20015;-85
2024/02/27 08:47:53;;;;;;;163.88;27.77;;;;;;;4.65;100.00;101101.22;6284115;22;20391;-85
2024/02/27 08:50:27;;;;;;;30.53;13.30;;;;;;;4.86;100.00;101107.75;6260796;22;20019;-85
2024/02/27 08:52:54;;;;;;;;;;;;;;;5.01;100.00;101115.00;6268922;22;20083;-84
2024/02/27 08:55:24;;;;;;;21.60;10.68;;;;;;;5.18;100.00;101111.03;6269930;22;19918;-87
2024/02/27 08:58:08;;;;;;;18.50;10.30;;;;;;;5.19;100.00;101117.06;6271648;22;20027;-84
2024/02/27 09:00:38;;;;;;;20.05;11.52;;;;;;;5.16;100.00;101122.22;6270288;22;20030;-86
2024/02/27 09:03:13;;;;;;;23.77;11.68;;;;;;;5.23;100.00;101119.78;6262167;22;20030;-86
2024/02/27 09:05:43;;;;;;;17.33;10.13;;;;;;;5.20;100.00;101116.22;6227990;22;20011;-84
2024/02/27 09:08:18;;;;;;;18.23;9.65;;;;;;;5.34;100.00;101112.19;6252284;22;20169;-86
2024/02/27 09:10:47;;;;;;;28.35;12.30;;;;;;;5.54;100.00;101115.19;6253905;22;20032;-86
2024/02/27 09:13:19;;;;;;;17.13;9.93;;;;;;;5.51;100.00;101122.03;6256016;22;20095;-87
2024/02/27 09:15:48;;;;;;;19.05;10.18;;;;;;;5.57;100.00;101120.44;6230812;22;20079;-86
2024/02/27 09:18:25;;;;;;;20.90;10.68;;;;;;;5.62;100.00;101128.34;6255477;22;20086;-86
2024/02/27 09:20:54;;;;;;;22.17;11.65;;;;;;;5.52;100.00;101122.06;6257331;22;20054;-87
2024/02/27 09:23:23;;;;;;;20.25;10.73;;;;;;;5.33;100.00;101119.97;6255707;22;20023;-86
2024/02/27 09:25:53;;;;;;;19.83;12.07;;;;;;;5.19;100.00;101119.66;6253797;22;20020;-86
2024/02/27 09:28:22;;;;;;;20.98;11.30;;;;;;;5.45;100.00;101118.47;6254021;22;20023;-84
2024/02/27 09:30:59;;;;;;;19.77;10.45;;;;;;;5.63;100.00;101114.47;6254968;22;20032;-87
2024/02/27 09:33:28;;;;;;;19.52;9.75;;;;;;;5.83;100.00;101124.34;6281494;22;20609;-85
2024/02/27 09:35:55;;;;;;;17.52;9.77;;;;;;;5.83;100.00;101120.06;6278989;22;20424;-86
2024/02/27 09:38:26;;;;;;;18.65;10.48;;;;;;;5.46;100.00;101127.13;6278331;22;20035;-86
2024/02/27 09:41:01;;;;;;;16.58;9.90;;;;;;;5.58;100.00;101121.31;6225597;22;20023;-87
2024/02/27 09:43:32;;;;;;;18.23;10.38;;;;;;;5.63;100.00;101130.94;6252588;22;20473;-86
2024/02/27 09:46:05;;;;;;;15.13;10.15;;;;;;;5.58;100.00;101127.38;6278908;22;20027;-85
2024/02/27 09:48:43;;;;;;;17.75;9.60;;;;;;;5.60;100.00;101127.41;6251291;22;20448;-87
2024/02/27 09:51:12;;;;;;;22.10;9.63;;;;;;;5.61;100.00;101119.66;6254737;22;20069;-86
2024/02/27 09:53:42;;;;;;;15.93;8.90;;;;;;;5.99;100.00;101129.03;6230926;22;20015;-87
2024/02/27 09:56:14;;;;;;;18.17;10.70;;;;;;;5.88;100.00;101126.22;6251915;22;20077;-84
2024/02/27 09:58:47;;;;;;;21.40;9.82;;;;;;;5.93;100.00;101129.78;6250456;22;20364;-84
2024/02/27 10:01:18;;;;;;;15.40;11.25;;;;;;;5.70;100.00;101123.28;6203379;22;20109;-83
2024/02/27 10:03:55;;;;;;;23.45;11.75;;;;;;;5.85;100.00;101120.94;6257221;22;20023;-84
2024/02/27 10:06:24;;;;;;;17.10;11.02;;;;;;;5.97;100.00;101123.78;6255931;22;20023;-84
2024/02/27 10:08:58;;;;;;;18.25;11.40;;;;;;;6.03;100.00;101119.56;6256427;22;20015;-85
2024/02/27 10:11:26;;;;;;;;;;;;;;;6.21;100.00;101113.81;6253758;22;20388;-85
2024/02/27 10:13:53;;;;;;;19.58;10.45;;;;;;;6.37;100.00;101114.91;6281584;22;19915;-84
2024/02/27 10:16:25;;;;;;;19.30;9.82;;;;;;;6.32;100.00;101113.97;6305246;22;20527;-85
2024/02/27 10:18:53;;;;;;;19.58;11.95;;;;;;;6.20;100.00;101114.66;6281698;22;20015;-85
2024/02/27 10:21:23;;;;;;;19.67;10.93;;;;;;;6.23;100.00;101110.38;6256109;22;20047;-85
2024/02/27 10:23:50;;;;;;;16.08;8.82;;;;;;;6.27;100.00;101104.38;6257284;22;20019;-84
2024/02/27 10:26:19;;;;;;;19.58;10.65;;;;;;;6.09;100.00;101111.88;6256139;22;20011;-84
2024/02/27 10:28:54;;;;;;;18.60;11.13;;;;;;;6.12;100.00;101114.50;6257256;22;20053;-84
2024/02/27 10:31:21;;;;;;;17.10;10.30;;;;;;;6.17;100.00;101119.81;6256598;22;20502;-85
2024/02/27 10:33:52;;;;;;;20.65;10.90;;;;;;;6.31;100.00;101107.91;6282932;22;20374;-84
2024/02/27 10:36:19;;;;;;;20.60;11.50;;;;;;;6.51;100.00;101118.59;6306841;22;20025;-84
2024/02/27 10:38:46;;;;;;;16.77;10.32;;;;;;;6.64;100.00;101111.00;6284391;22;20023;-84
2024/02/27 10:41:15;;;;;;;17.48;10.07;;;;;;;6.49;100.00;101101.22;6281630;22;20019;-83
2024/02/27 10:43:43;;;;;;;19.58;10.00;;;;;;;6.57;100.00;101104.81;6281486;22;20038;-86
2024/02/27 10:46:15;;;;;;;16.92;9.27;;;;;;;6.35;100.00;101106.19;6255962;22;20015;-83
2024/02/27 10:48:47;;;;;;;18.00;10.65;;;;;;;6.33;100.00;101106.19;6308725;22;20015;-84
2024/02/27 10:51:30;;;;;;;14.75;8.68;;;;;;;6.66;98.74;101099.72;6269286;22;20026;-83
2024/02/27 10:54:19;;;;;;;17.27;10.10;;;;;;;6.86;96.04;101099.16;6282436;22;20023;-84
2024/02/27 10:56:57;;;;;;;19.85;10.95;;;;;;;6.49;95.98;101104.69;6290365;22;20107;-85
2024/02/27 10:59:29;;;;;;;15.38;9.00;;;;;;;6.74;96.36;101110.25;6268204;22;20463;-85
2024/02/27 11:02:02;;;;;;;19.15;10.10;;;;;;;7.06;94.10;101110.69;6266225;22;20352;-85
2024/02/27 11:04:35;;;;;;;19.45;10.02;;;;;;;7.44;92.70;101107.69;6267306;22;20441;-85
2024/02/27 11:07:07;;;;;;;13.25;8.77;;;;;;;7.54;89.93;101105.19;6219511;22;20019;-81
2024/02/27 11:12:21;;;;;;;17.42;10.93;;;;;;;7.20;90.20;101115.22;6269169;22;20019;-85
2024/02/27 11:14:53;;;;;;;18.45;10.55;;;;;;;7.19;91.48;101113.47;6256802;22;20429;-83
2024/02/27 11:17:23;;;;;;;17.08;9.60;;;;;;;7.38;90.79;101102.41;6283801;22;20035;-83
2024/02/27 11:19:54;;;;;;;16.50;9.77;;;;;;;7.49;89.47;101106.88;6285405;22;20072;-83
2024/02/27 11:22:23;;;;;;;19.85;10.70;;;;;;;7.25;88.95;101109.19;6282651;22;20023;-84
2024/02/27 11:24:50;;;;;;;18.20;9.65;;;;;;;7.33;90.98;101111.91;6281856;22;20031;-85
2024/02/27 11:27:26;;;;;;;17.25;9.43;;;;;;;7.16;91.40;101119.50;6254332;22;20022;-86
2024/02/27 11:29:57;;;;;;;15.20;9.20;;;;;;;7.20;89.69;101118.69;6255500;22;20027;-84
2024/02/27 11:32:24;;;;;;;14.10;9.40;;;;;;;7.32;89.67;101117.09;6256226;22;20015;-84
2024/02/27 11:35:01;;;;;;;15.18;9.35;;;;;;;7.14;89.02;101128.16;6255693;22;20023;-84
2024/02/27 11:37:36;;;;;;;16.17;9.43;;;;;;;7.32;88.66;101125.75;6256598;22;20042;-85
2024/02/27 11:40:09;;;;;;;18.63;10.68;;;;;;;7.14;88.74;101121.19;6283354;22;20015;-84